sensor_id;sensor_type;location;lat;lon;timestamp;P1;durP1;ratioP1;P2;durP2;ratioP2
52574;SDS011;38468;48.114;-1.684;2022-08-27T00:01:23;7.10;;;1.67;;
52574;SDS011;38468;48.114;-1.684;2022-08-27T00:03:24;4.57;;;1.48;;
52574;SDS011;38468;48.114;-1.684;2022-08-27T00:05:24;6.07;;;1.77;;
52574;SDS011;38468;48.114;-1.684;2022-08-27T00:07:25;7.15;;;1.58;;
52574;SDS011;38468;48.114;-1.684;2022-08-27T00:09:26;2.28;;;1.30;;
52574;SDS011;38468;48.114;-1.684;2022-08-27T00:11:27;1.05;;;0.93;;
52574;SDS011;38468;48.114;-1.684;2022-08-27T00:13:28;4.72;;;1.40;;
52574;SDS011;38468;48.114;-1.684;2022-08-27T00:15:29;1.90;;;1.58;;
52574;SDS011;38468;48.114;-1.684;2022-08-27T00:17:30;2.55;;;1.00;;
52574;SDS011;38468;48.114;-1.684;2022-08-27T00:19:32;2.17;;;1.20;;
52574;SDS011;38468;48.114;-1.684;2022-08-27T00:21:33;1.63;;;1.00;;
52574;SDS011;38468;48.114;-1.684;2022-08-27T00:23:34;2.15;;;1.17;;
52574;SDS011;38468;48.114;-1.684;2022-08-27T00:25:35;9.77;;;2.13;;
52574;SDS011;38468;48.114;-1.684;2022-08-27T00:27:36;3.70;;;1.23;;
52574;SDS011;38468;48.114;-1.684;2022-08-27T00:29:37;2.05;;;1.20;;
52574;SDS011;38468;48.114;-1.684;2022-08-27T00:31:38;4.00;;;1.60;;
52574;SDS011;38468;48.114;-1.684;2022-08-27T00:33:39;4.50;;;1.23;;
52574;SDS011;38468;48.114;-1.684;2022-08-27T00:35:40;2.92;;;1.65;;
52574;SDS011;38468;48.114;-1.684;2022-08-27T00:37:41;3.72;;;1.67;;
52574;SDS011;38468;48.114;-1.684;2022-08-27T00:39:42;3.45;;;1.60;;
52574;SDS011;38468;48.114;-1.684;2022-08-27T00:41:43;4.25;;;1.73;;
52574;SDS011;38468;48.114;-1.684;2022-08-27T00:43:48;2.35;;;1.77;;
52574;SDS011;38468;48.114;-1.684;2022-08-27T00:45:54;4.63;;;1.70;;
52574;SDS011;38468;48.114;-1.684;2022-08-27T00:48:11;4.78;;;1.30;;
52574;SDS011;38468;48.114;-1.684;2022-08-27T00:50:16;2.80;;;1.60;;
52574;SDS011;38468;48.114;-1.684;2022-08-27T00:52:25;6.82;;;1.23;;
52574;SDS011;38468;48.114;-1.684;2022-08-27T00:54:26;1.45;;;1.35;;
52574;SDS011;38468;48.114;-1.684;2022-08-27T00:56:31;2.85;;;1.80;;
52574;SDS011;38468;48.114;-1.684;2022-08-27T00:58:38;5.68;;;1.23;;
52574;SDS011;38468;48.114;-1.684;2022-08-27T01:00:43;4.18;;;1.48;;
52574;SDS011;38468;48.114;-1.684;2022-08-27T01:02:46;1.30;;;0.90;;
52574;SDS011;38468;48.114;-1.684;2022-08-27T01:04:48;0.80;;;0.80;;
52574;SDS011;38468;48.114;-1.684;2022-08-27T01:06:50;3.83;;;1.45;;
52574;SDS011;38468;48.114;-1.684;2022-08-27T01:08:53;1.35;;;1.10;;
52574;SDS011;38468;48.114;-1.684;2022-08-27T01:10:57;4.47;;;1.30;;
52574;SDS011;38468;48.114;-1.684;2022-08-27T01:12:59;7.90;;;1.85;;
52574;SDS011;38468;48.114;-1.684;2022-08-27T01:15:00;2.55;;;1.35;;
52574;SDS011;38468;48.114;-1.684;2022-08-27T01:17:05;3.45;;;1.92;;
52574;SDS011;38468;48.114;-1.684;2022-08-27T01:19:19;3.53;;;1.33;;
52574;SDS011;38468;48.114;-1.684;2022-08-27T01:21:46;6.18;;;1.95;;
52574;SDS011;38468;48.114;-1.684;2022-08-27T01:24:01;6.50;;;1.70;;
52574;SDS011;38468;48.114;-1.684;2022-08-27T01:26:25;2.50;;;1.17;;
52574;SDS011;38468;48.114;-1.684;2022-08-27T01:28:27;3.50;;;2.50;;
52574;SDS011;38468;48.114;-1.684;2022-08-27T01:32:32;3.30;;;1.77;;
52574;SDS011;38468;48.114;-1.684;2022-08-27T01:34:34;5.60;;;1.83;;
52574;SDS011;38468;48.114;-1.684;2022-08-27T01:36:35;5.45;;;1.88;;
52574;SDS011;38468;48.114;-1.684;2022-08-27T01:38:36;3.72;;;1.45;;
52574;SDS011;38468;48.114;-1.684;2022-08-27T01:40:37;5.35;;;2.35;;
52574;SDS011;38468;48.114;-1.684;2022-08-27T01:42:42;8.45;;;2.38;;
52574;SDS011;38468;48.114;-1.684;2022-08-27T01:44:49;5.22;;;1.70;;
52574;SDS011;38468;48.114;-1.684;2022-08-27T01:46:56;3.92;;;1.48;;
52574;SDS011;38468;48.114;-1.684;2022-08-27T01:48:57;5.78;;;2.08;;
52574;SDS011;38468;48.114;-1.684;2022-08-27T01:50:57;7.93;;;2.00;;
52574;SDS011;38468;48.114;-1.684;2022-08-27T01:53:06;3.85;;;1.63;;
52574;SDS011;38468;48.114;-1.684;2022-08-27T01:55:10;10.43;;;1.17;;
52574;SDS011;38468;48.114;-1.684;2022-08-27T01:57:14;2.67;;;1.38;;
52574;SDS011;38468;48.114;-1.684;2022-08-27T01:59:15;2.80;;;1.98;;
52574;SDS011;38468;48.114;-1.684;2022-08-27T02:01:16;5.00;;;1.70;;
52574;SDS011;38468;48.114;-1.684;2022-08-27T02:03:18;6.32;;;1.48;;
52574;SDS011;38468;48.114;-1.684;2022-08-27T02:05:19;5.13;;;1.60;;
52574;SDS011;38468;48.114;-1.684;2022-08-27T02:07:20;2.22;;;1.10;;
52574;SDS011;38468;48.114;-1.684;2022-08-27T02:09:21;3.65;;;1.52;;
52574;SDS011;38468;48.114;-1.684;2022-08-27T02:11:22;3.97;;;2.00;;
52574;SDS011;38468;48.114;-1.684;2022-08-27T02:13:23;2.78;;;1.30;;
52574;SDS011;38468;48.114;-1.684;2022-08-27T02:15:24;2.63;;;1.70;;
52574;SDS011;38468;48.114;-1.684;2022-08-27T02:17:25;1.92;;;1.42;;
52574;SDS011;38468;48.114;-1.684;2022-08-27T02:19:25;2.03;;;1.02;;
52574;SDS011;38468;48.114;-1.684;2022-08-27T02:21:26;5.45;;;1.33;;
52574;SDS011;38468;48.114;-1.684;2022-08-27T02:23:27;5.22;;;1.90;;
52574;SDS011;38468;48.114;-1.684;2022-08-27T02:25:28;5.72;;;1.75;;
52574;SDS011;38468;48.114;-1.684;2022-08-27T02:27:28;2.22;;;1.98;;
52574;SDS011;38468;48.114;-1.684;2022-08-27T02:29:29;1.67;;;1.40;;
52574;SDS011;38468;48.114;-1.684;2022-08-27T02:31:30;1.88;;;1.30;;
52574;SDS011;38468;48.114;-1.684;2022-08-27T02:33:30;6.07;;;1.75;;
52574;SDS011;38468;48.114;-1.684;2022-08-27T02:35:33;2.95;;;1.50;;
52574;SDS011;38468;48.114;-1.684;2022-08-27T02:37:37;3.25;;;1.95;;
52574;SDS011;38468;48.114;-1.684;2022-08-27T02:39:38;0.90;;;0.90;;
52574;SDS011;38468;48.114;-1.684;2022-08-27T02:41:41;3.83;;;1.33;;
52574;SDS011;38468;48.114;-1.684;2022-08-27T02:43:42;7.28;;;1.88;;
52574;SDS011;38468;48.114;-1.684;2022-08-27T02:45:43;2.80;;;1.05;;
52574;SDS011;38468;48.114;-1.684;2022-08-27T02:47:44;3.60;;;1.60;;
52574;SDS011;38468;48.114;-1.684;2022-08-27T02:49:44;8.52;;;1.85;;
52574;SDS011;38468;48.114;-1.684;2022-08-27T02:51:45;7.45;;;1.58;;
52574;SDS011;38468;48.114;-1.684;2022-08-27T02:53:46;6.22;;;1.83;;
52574;SDS011;38468;48.114;-1.684;2022-08-27T02:55:47;3.75;;;1.50;;
52574;SDS011;38468;48.114;-1.684;2022-08-27T02:57:47;5.88;;;1.75;;
52574;SDS011;38468;48.114;-1.684;2022-08-27T02:59:49;4.55;;;1.85;;
52574;SDS011;38468;48.114;-1.684;2022-08-27T03:01:50;8.82;;;1.65;;
52574;SDS011;38468;48.114;-1.684;2022-08-27T03:03:51;2.78;;;1.40;;
52574;SDS011;38468;48.114;-1.684;2022-08-27T03:05:52;1.23;;;1.20;;
52574;SDS011;38468;48.114;-1.684;2022-08-27T03:07:52;5.03;;;1.70;;
52574;SDS011;38468;48.114;-1.684;2022-08-27T03:09:53;7.47;;;1.85;;
52574;SDS011;38468;48.114;-1.684;2022-08-27T03:11:54;3.05;;;1.65;;
52574;SDS011;38468;48.114;-1.684;2022-08-27T03:13:55;2.30;;;1.35;;
52574;SDS011;38468;48.114;-1.684;2022-08-27T03:15:57;4.07;;;2.00;;
52574;SDS011;38468;48.114;-1.684;2022-08-27T03:17:58;5.47;;;1.95;;
52574;SDS011;38468;48.114;-1.684;2022-08-27T03:20:17;3.95;;;1.92;;
52574;SDS011;38468;48.114;-1.684;2022-08-27T03:22:18;3.92;;;1.88;;
52574;SDS011;38468;48.114;-1.684;2022-08-27T03:24:18;8.27;;;1.80;;
52574;SDS011;38468;48.114;-1.684;2022-08-27T03:26:19;4.43;;;1.73;;
52574;SDS011;38468;48.114;-1.684;2022-08-27T03:28:24;3.22;;;1.75;;
52574;SDS011;38468;48.114;-1.684;2022-08-27T03:30:27;2.53;;;1.52;;
52574;SDS011;38468;48.114;-1.684;2022-08-27T03:32:28;6.35;;;1.60;;
52574;SDS011;38468;48.114;-1.684;2022-08-27T03:34:28;5.10;;;1.58;;
52574;SDS011;38468;48.114;-1.684;2022-08-27T03:36:30;4.35;;;1.80;;
52574;SDS011;38468;48.114;-1.684;2022-08-27T03:38:31;4.25;;;1.40;;
52574;SDS011;38468;48.114;-1.684;2022-08-27T03:40:32;3.88;;;1.75;;
52574;SDS011;38468;48.114;-1.684;2022-08-27T03:42:33;5.80;;;1.30;;
52574;SDS011;38468;48.114;-1.684;2022-08-27T03:46:35;3.63;;;2.13;;
52574;SDS011;38468;48.114;-1.684;2022-08-27T03:48:36;3.67;;;1.45;;
52574;SDS011;38468;48.114;-1.684;2022-08-27T03:50:38;5.10;;;2.30;;
52574;SDS011;38468;48.114;-1.684;2022-08-27T03:52:40;4.90;;;1.58;;
52574;SDS011;38468;48.114;-1.684;2022-08-27T03:54:40;2.97;;;1.55;;
52574;SDS011;38468;48.114;-1.684;2022-08-27T03:56:41;1.95;;;1.50;;
52574;SDS011;38468;48.114;-1.684;2022-08-27T03:58:42;9.00;;;2.10;;
52574;SDS011;38468;48.114;-1.684;2022-08-27T04:00:43;3.30;;;1.42;;
52574;SDS011;38468;48.114;-1.684;2022-08-27T04:02:44;2.65;;;1.83;;
52574;SDS011;38468;48.114;-1.684;2022-08-27T04:04:44;4.65;;;1.85;;
52574;SDS011;38468;48.114;-1.684;2022-08-27T04:06:45;6.60;;;2.65;;
52574;SDS011;38468;48.114;-1.684;2022-08-27T04:08:46;1.70;;;1.50;;
52574;SDS011;38468;48.114;-1.684;2022-08-27T04:10:46;3.90;;;1.90;;
52574;SDS011;38468;48.114;-1.684;2022-08-27T04:12:47;6.65;;;2.65;;
52574;SDS011;38468;48.114;-1.684;2022-08-27T04:14:48;1.52;;;1.42;;
52574;SDS011;38468;48.114;-1.684;2022-08-27T04:16:49;1.98;;;1.70;;
52574;SDS011;38468;48.114;-1.684;2022-08-27T04:18:50;4.10;;;1.95;;
52574;SDS011;38468;48.114;-1.684;2022-08-27T04:20:51;2.03;;;1.83;;
52574;SDS011;38468;48.114;-1.684;2022-08-27T04:22:51;5.47;;;2.08;;
52574;SDS011;38468;48.114;-1.684;2022-08-27T04:24:52;3.78;;;1.67;;
52574;SDS011;38468;48.114;-1.684;2022-08-27T04:26:53;3.22;;;2.00;;
52574;SDS011;38468;48.114;-1.684;2022-08-27T04:28:55;1.75;;;1.65;;
52574;SDS011;38468;48.114;-1.684;2022-08-27T04:30:57;1.75;;;1.48;;
52574;SDS011;38468;48.114;-1.684;2022-08-27T04:32:57;1.30;;;1.20;;
52574;SDS011;38468;48.114;-1.684;2022-08-27T04:34:58;3.30;;;2.00;;
52574;SDS011;38468;48.114;-1.684;2022-08-27T04:37:00;2.08;;;1.83;;
52574;SDS011;38468;48.114;-1.684;2022-08-27T04:39:00;2.70;;;1.55;;
52574;SDS011;38468;48.114;-1.684;2022-08-27T04:41:02;4.60;;;2.03;;
52574;SDS011;38468;48.114;-1.684;2022-08-27T04:43:20;2.92;;;1.60;;
52574;SDS011;38468;48.114;-1.684;2022-08-27T04:45:20;4.10;;;1.98;;
52574;SDS011;38468;48.114;-1.684;2022-08-27T04:47:21;5.13;;;1.50;;
52574;SDS011;38468;48.114;-1.684;2022-08-27T04:49:22;7.13;;;1.90;;
52574;SDS011;38468;48.114;-1.684;2022-08-27T04:51:23;2.08;;;1.50;;
52574;SDS011;38468;48.114;-1.684;2022-08-27T04:53:24;5.22;;;2.13;;
52574;SDS011;38468;48.114;-1.684;2022-08-27T04:55:25;3.97;;;1.60;;
52574;SDS011;38468;48.114;-1.684;2022-08-27T04:57:27;6.57;;;1.90;;
52574;SDS011;38468;48.114;-1.684;2022-08-27T04:59:27;1.73;;;1.63;;
52574;SDS011;38468;48.114;-1.684;2022-08-27T05:01:29;4.40;;;1.73;;
52574;SDS011;38468;48.114;-1.684;2022-08-27T05:03:30;5.70;;;1.90;;
52574;SDS011;38468;48.114;-1.684;2022-08-27T05:05:30;1.33;;;1.27;;
52574;SDS011;38468;48.114;-1.684;2022-08-27T05:07:31;5.70;;;1.50;;
52574;SDS011;38468;48.114;-1.684;2022-08-27T05:09:32;2.97;;;1.35;;
52574;SDS011;38468;48.114;-1.684;2022-08-27T05:11:33;3.37;;;1.90;;
52574;SDS011;38468;48.114;-1.684;2022-08-27T05:13:34;1.90;;;1.30;;
52574;SDS011;38468;48.114;-1.684;2022-08-27T05:15:37;6.03;;;2.00;;
52574;SDS011;38468;48.114;-1.684;2022-08-27T05:17:38;5.32;;;1.35;;
52574;SDS011;38468;48.114;-1.684;2022-08-27T05:19:39;5.72;;;2.60;;
52574;SDS011;38468;48.114;-1.684;2022-08-27T05:21:42;4.47;;;2.20;;
52574;SDS011;38468;48.114;-1.684;2022-08-27T05:23:46;2.97;;;2.08;;
52574;SDS011;38468;48.114;-1.684;2022-08-27T05:25:47;2.42;;;2.10;;
52574;SDS011;38468;48.114;-1.684;2022-08-27T05:27:49;3.03;;;2.28;;
52574;SDS011;38468;48.114;-1.684;2022-08-27T05:29:50;4.45;;;1.70;;
52574;SDS011;38468;48.114;-1.684;2022-08-27T05:31:50;3.95;;;1.40;;
52574;SDS011;38468;48.114;-1.684;2022-08-27T05:33:51;3.42;;;1.65;;
52574;SDS011;38468;48.114;-1.684;2022-08-27T05:35:55;1.65;;;1.55;;
52574;SDS011;38468;48.114;-1.684;2022-08-27T05:37:58;2.20;;;1.30;;
52574;SDS011;38468;48.114;-1.684;2022-08-27T05:40:02;10.73;;;2.40;;
52574;SDS011;38468;48.114;-1.684;2022-08-27T05:42:03;2.00;;;1.80;;
52574;SDS011;38468;48.114;-1.684;2022-08-27T05:44:06;1.98;;;1.20;;
52574;SDS011;38468;48.114;-1.684;2022-08-27T05:46:11;3.28;;;1.17;;
52574;SDS011;38468;48.114;-1.684;2022-08-27T05:48:14;4.43;;;2.17;;
52574;SDS011;38468;48.114;-1.684;2022-08-27T05:50:15;4.18;;;2.05;;
52574;SDS011;38468;48.114;-1.684;2022-08-27T05:52:16;1.50;;;1.35;;
52574;SDS011;38468;48.114;-1.684;2022-08-27T05:54:18;4.13;;;1.30;;
52574;SDS011;38468;48.114;-1.684;2022-08-27T05:56:19;3.03;;;1.88;;
52574;SDS011;38468;48.114;-1.684;2022-08-27T05:58:23;2.63;;;1.70;;
52574;SDS011;38468;48.114;-1.684;2022-08-27T06:00:42;1.48;;;1.38;;
52574;SDS011;38468;48.114;-1.684;2022-08-27T06:03:01;10.18;;;2.33;;
52574;SDS011;38468;48.114;-1.684;2022-08-27T06:05:02;6.95;;;1.80;;
52574;SDS011;38468;48.114;-1.684;2022-08-27T06:07:03;3.83;;;1.75;;
52574;SDS011;38468;48.114;-1.684;2022-08-27T06:09:05;20.25;;;10.45;;
52574;SDS011;38468;48.114;-1.684;2022-08-27T06:11:07;8.05;;;6.65;;
52574;SDS011;38468;48.114;-1.684;2022-08-27T06:13:08;4.75;;;3.47;;
52574;SDS011;38468;48.114;-1.684;2022-08-27T06:15:09;4.75;;;1.98;;
52574;SDS011;38468;48.114;-1.684;2022-08-27T06:17:10;2.63;;;1.90;;
52574;SDS011;38468;48.114;-1.684;2022-08-27T06:19:10;2.58;;;1.23;;
52574;SDS011;38468;48.114;-1.684;2022-08-27T06:21:11;2.08;;;1.55;;
52574;SDS011;38468;48.114;-1.684;2022-08-27T06:23:14;3.58;;;1.85;;
52574;SDS011;38468;48.114;-1.684;2022-08-27T06:25:15;2.22;;;1.40;;
52574;SDS011;38468;48.114;-1.684;2022-08-27T06:27:16;1.48;;;1.38;;
52574;SDS011;38468;48.114;-1.684;2022-08-27T06:29:18;5.00;;;2.03;;
52574;SDS011;38468;48.114;-1.684;2022-08-27T06:31:24;4.28;;;1.58;;
52574;SDS011;38468;48.114;-1.684;2022-08-27T06:33:26;1.52;;;1.35;;
52574;SDS011;38468;48.114;-1.684;2022-08-27T06:35:27;2.83;;;1.48;;
52574;SDS011;38468;48.114;-1.684;2022-08-27T06:37:27;6.85;;;3.20;;
52574;SDS011;38468;48.114;-1.684;2022-08-27T06:39:30;11.38;;;5.03;;
52574;SDS011;38468;48.114;-1.684;2022-08-27T06:41:31;9.25;;;3.13;;
52574;SDS011;38468;48.114;-1.684;2022-08-27T06:43:34;4.78;;;2.13;;
52574;SDS011;38468;48.114;-1.684;2022-08-27T06:45:36;2.65;;;2.10;;
52574;SDS011;38468;48.114;-1.684;2022-08-27T06:49:39;6.10;;;1.60;;
52574;SDS011;38468;48.114;-1.684;2022-08-27T06:51:43;2.63;;;1.33;;
52574;SDS011;38468;48.114;-1.684;2022-08-27T06:53:45;1.05;;;0.95;;
52574;SDS011;38468;48.114;-1.684;2022-08-27T06:55:47;3.53;;;1.55;;
52574;SDS011;38468;48.114;-1.684;2022-08-27T06:57:48;4.70;;;1.73;;
52574;SDS011;38468;48.114;-1.684;2022-08-27T06:59:49;11.55;;;1.30;;
52574;SDS011;38468;48.114;-1.684;2022-08-27T07:01:50;4.95;;;1.83;;
52574;SDS011;38468;48.114;-1.684;2022-08-27T07:03:52;2.58;;;1.05;;
52574;SDS011;38468;48.114;-1.684;2022-08-27T07:06:01;1.98;;;1.30;;
52574;SDS011;38468;48.114;-1.684;2022-08-27T07:08:04;4.13;;;1.85;;
52574;SDS011;38468;48.114;-1.684;2022-08-27T07:10:06;2.08;;;1.10;;
52574;SDS011;38468;48.114;-1.684;2022-08-27T07:12:07;5.10;;;1.70;;
52574;SDS011;38468;48.114;-1.684;2022-08-27T07:14:08;2.60;;;1.63;;
52574;SDS011;38468;48.114;-1.684;2022-08-27T07:16:10;4.30;;;1.50;;
52574;SDS011;38468;48.114;-1.684;2022-08-27T07:18:11;9.27;;;2.30;;
52574;SDS011;38468;48.114;-1.684;2022-08-27T07:20:13;1.73;;;1.58;;
52574;SDS011;38468;48.114;-1.684;2022-08-27T07:22:15;1.90;;;1.50;;
52574;SDS011;38468;48.114;-1.684;2022-08-27T07:24:15;4.07;;;2.13;;
52574;SDS011;38468;48.114;-1.684;2022-08-27T07:26:17;5.18;;;1.63;;
52574;SDS011;38468;48.114;-1.684;2022-08-27T07:28:18;4.60;;;3.05;;
52574;SDS011;38468;48.114;-1.684;2022-08-27T07:30:19;3.75;;;2.25;;
52574;SDS011;38468;48.114;-1.684;2022-08-27T07:32:19;4.32;;;1.92;;
52574;SDS011;38468;48.114;-1.684;2022-08-27T07:34:20;9.80;;;3.85;;
52574;SDS011;38468;48.114;-1.684;2022-08-27T07:36:21;4.90;;;3.22;;
52574;SDS011;38468;48.114;-1.684;2022-08-27T07:38:22;5.28;;;1.90;;
52574;SDS011;38468;48.114;-1.684;2022-08-27T07:40:23;10.82;;;4.85;;
52574;SDS011;38468;48.114;-1.684;2022-08-27T07:42:24;6.85;;;3.15;;
52574;SDS011;38468;48.114;-1.684;2022-08-27T07:44:43;2.22;;;2.05;;
52574;SDS011;38468;48.114;-1.684;2022-08-27T07:46:44;12.02;;;2.97;;
52574;SDS011;38468;48.114;-1.684;2022-08-27T07:48:46;13.35;;;2.58;;
52574;SDS011;38468;48.114;-1.684;2022-08-27T07:50:48;3.83;;;2.95;;
52574;SDS011;38468;48.114;-1.684;2022-08-27T07:52:49;3.33;;;2.22;;
52574;SDS011;38468;48.114;-1.684;2022-08-27T07:54:50;2.42;;;2.10;;
52574;SDS011;38468;48.114;-1.684;2022-08-27T07:56:52;3.35;;;1.73;;
52574;SDS011;38468;48.114;-1.684;2022-08-27T07:58:53;8.70;;;2.72;;
52574;SDS011;38468;48.114;-1.684;2022-08-27T08:00:54;6.15;;;3.53;;
52574;SDS011;38468;48.114;-1.684;2022-08-27T08:02:55;4.83;;;3.77;;
52574;SDS011;38468;48.114;-1.684;2022-08-27T08:04:56;6.00;;;2.80;;
52574;SDS011;38468;48.114;-1.684;2022-08-27T08:06:57;3.50;;;2.35;;
52574;SDS011;38468;48.114;-1.684;2022-08-27T08:08:58;4.63;;;2.85;;
52574;SDS011;38468;48.114;-1.684;2022-08-27T08:10:58;8.50;;;3.15;;
52574;SDS011;38468;48.114;-1.684;2022-08-27T08:13:00;13.43;;;3.22;;
52574;SDS011;38468;48.114;-1.684;2022-08-27T08:15:01;6.57;;;3.17;;
52574;SDS011;38468;48.114;-1.684;2022-08-27T08:17:03;9.63;;;3.38;;
52574;SDS011;38468;48.114;-1.684;2022-08-27T08:19:04;12.52;;;4.05;;
52574;SDS011;38468;48.114;-1.684;2022-08-27T08:21:07;5.57;;;3.35;;
52574;SDS011;38468;48.114;-1.684;2022-08-27T08:23:09;4.10;;;2.75;;
52574;SDS011;38468;48.114;-1.684;2022-08-27T08:25:10;8.98;;;4.30;;
52574;SDS011;38468;48.114;-1.684;2022-08-27T08:27:13;5.35;;;4.25;;
52574;SDS011;38468;48.114;-1.684;2022-08-27T08:29:13;8.43;;;4.10;;
52574;SDS011;38468;48.114;-1.684;2022-08-27T08:31:14;9.27;;;4.18;;
52574;SDS011;38468;48.114;-1.684;2022-08-27T08:33:15;6.18;;;3.05;;
52574;SDS011;38468;48.114;-1.684;2022-08-27T08:35:16;10.00;;;4.95;;
52574;SDS011;38468;48.114;-1.684;2022-08-27T08:37:16;7.95;;;3.55;;
52574;SDS011;38468;48.114;-1.684;2022-08-27T08:39:17;5.10;;;3.13;;
52574;SDS011;38468;48.114;-1.684;2022-08-27T08:43:32;5.10;;;3.40;;
52574;SDS011;38468;48.114;-1.684;2022-08-27T08:45:38;8.35;;;3.65;;
52574;SDS011;38468;48.114;-1.684;2022-08-27T08:49:47;13.27;;;3.45;;
52574;SDS011;38468;48.114;-1.684;2022-08-27T08:52:05;8.52;;;4.20;;
52574;SDS011;38468;48.114;-1.684;2022-08-27T08:54:15;17.45;;;8.13;;
52574;SDS011;38468;48.114;-1.684;2022-08-27T08:56:27;13.50;;;4.60;;
52574;SDS011;38468;48.114;-1.684;2022-08-27T09:01:05;3.30;;;2.58;;
52574;SDS011;38468;48.114;-1.684;2022-08-27T09:03:08;11.10;;;3.83;;
52574;SDS011;38468;48.114;-1.684;2022-08-27T09:05:11;11.57;;;4.15;;
52574;SDS011;38468;48.114;-1.684;2022-08-27T09:07:14;5.78;;;2.83;;
52574;SDS011;38468;48.114;-1.684;2022-08-27T09:09:31;6.95;;;3.88;;
52574;SDS011;38468;48.114;-1.684;2022-08-27T09:14:02;10.57;;;3.85;;
52574;SDS011;38468;48.114;-1.684;2022-08-27T09:16:13;9.20;;;3.50;;
52574;SDS011;38468;48.114;-1.684;2022-08-27T09:18:14;6.22;;;4.47;;
52574;SDS011;38468;48.114;-1.684;2022-08-27T09:20:17;3.28;;;2.70;;
52574;SDS011;38468;48.114;-1.684;2022-08-27T09:22:38;7.20;;;3.55;;
52574;SDS011;38468;48.114;-1.684;2022-08-27T09:25:06;7.88;;;2.85;;
52574;SDS011;38468;48.114;-1.684;2022-08-27T09:27:08;3.70;;;2.83;;
52574;SDS011;38468;48.114;-1.684;2022-08-27T09:29:12;7.57;;;2.97;;
52574;SDS011;38468;48.114;-1.684;2022-08-27T09:31:17;3.55;;;2.85;;
52574;SDS011;38468;48.114;-1.684;2022-08-27T09:33:19;7.78;;;3.13;;
52574;SDS011;38468;48.114;-1.684;2022-08-27T09:35:21;7.13;;;3.00;;
52574;SDS011;38468;48.114;-1.684;2022-08-27T09:37:29;9.25;;;4.97;;
52574;SDS011;38468;48.114;-1.684;2022-08-27T09:39:33;11.00;;;4.25;;
52574;SDS011;38468;48.114;-1.684;2022-08-27T09:41:41;8.18;;;5.15;;
52574;SDS011;38468;48.114;-1.684;2022-08-27T09:43:54;6.80;;;3.50;;
52574;SDS011;38468;48.114;-1.684;2022-08-27T09:46:15;3.65;;;2.65;;
52574;SDS011;38468;48.114;-1.684;2022-08-27T09:48:24;5.60;;;2.60;;
52574;SDS011;38468;48.114;-1.684;2022-08-27T09:50:33;4.60;;;2.75;;
52574;SDS011;38468;48.114;-1.684;2022-08-27T09:54:50;4.68;;;2.65;;
52574;SDS011;38468;48.114;-1.684;2022-08-27T09:56:54;7.47;;;2.70;;
52574;SDS011;38468;48.114;-1.684;2022-08-27T09:59:02;4.32;;;2.00;;
52574;SDS011;38468;48.114;-1.684;2022-08-27T10:01:24;9.88;;;2.47;;
52574;SDS011;38468;48.114;-1.684;2022-08-27T10:03:26;3.80;;;1.98;;
52574;SDS011;38468;48.114;-1.684;2022-08-27T10:05:35;5.70;;;2.63;;
52574;SDS011;38468;48.114;-1.684;2022-08-27T10:07:48;5.03;;;2.00;;
52574;SDS011;38468;48.114;-1.684;2022-08-27T10:12:22;6.00;;;3.97;;
52574;SDS011;38468;48.114;-1.684;2022-08-27T10:14:31;3.55;;;2.83;;
52574;SDS011;38468;48.114;-1.684;2022-08-27T10:18:47;4.25;;;3.28;;
52574;SDS011;38468;48.114;-1.684;2022-08-27T10:23:26;2.50;;;2.13;;
52574;SDS011;38468;48.114;-1.684;2022-08-27T10:29:53;11.63;;;3.20;;
52574;SDS011;38468;48.114;-1.684;2022-08-27T10:41:22;1.92;;;1.75;;
52574;SDS011;38468;48.114;-1.684;2022-08-27T10:45:48;2.47;;;1.90;;
52574;SDS011;38468;48.114;-1.684;2022-08-27T10:52:28;1.53;;;1.43;;
52574;SDS011;38468;48.114;-1.684;2022-08-27T10:54:39;5.20;;;1.73;;
52574;SDS011;38468;48.114;-1.684;2022-08-27T10:56:59;4.30;;;1.63;;
52574;SDS011;38468;48.114;-1.684;2022-08-27T11:03:42;2.47;;;1.35;;
52574;SDS011;38468;48.114;-1.684;2022-08-27T11:05:48;3.10;;;1.92;;
52574;SDS011;38468;48.114;-1.684;2022-08-27T11:07:55;2.17;;;1.65;;
52574;SDS011;38468;48.114;-1.684;2022-08-27T11:10:16;3.05;;;2.17;;
52574;SDS011;38468;48.114;-1.684;2022-08-27T11:12:46;1.58;;;1.45;;
52574;SDS011;38468;48.114;-1.684;2022-08-27T11:14:56;6.20;;;1.65;;
52574;SDS011;38468;48.114;-1.684;2022-08-27T11:17:02;2.15;;;1.48;;
52574;SDS011;38468;48.114;-1.684;2022-08-27T11:24:12;10.30;;;6.47;;
52574;SDS011;38468;48.114;-1.684;2022-08-27T11:26:33;8.13;;;4.72;;
52574;SDS011;38468;48.114;-1.684;2022-08-27T11:28:45;3.40;;;2.75;;
52574;SDS011;38468;48.114;-1.684;2022-08-27T11:33:15;4.80;;;2.50;;
52574;SDS011;38468;48.114;-1.684;2022-08-27T11:35:41;3.75;;;2.22;;
52574;SDS011;38468;48.114;-1.684;2022-08-27T11:42:44;4.03;;;2.38;;
52574;SDS011;38468;48.114;-1.684;2022-08-27T11:44:57;2.13;;;1.50;;
52574;SDS011;38468;48.114;-1.684;2022-08-27T11:47:08;2.90;;;1.50;;
52574;SDS011;38468;48.114;-1.684;2022-08-27T11:49:25;2.28;;;1.23;;
52574;SDS011;38468;48.114;-1.684;2022-08-27T11:51:35;13.18;;;1.63;;
52574;SDS011;38468;48.114;-1.684;2022-08-27T11:53:43;3.97;;;1.60;;
52574;SDS011;38468;48.114;-1.684;2022-08-27T11:56:09;1.23;;;1.20;;
52574;SDS011;38468;48.114;-1.684;2022-08-27T12:00:20;1.42;;;1.33;;
52574;SDS011;38468;48.114;-1.684;2022-08-27T12:02:33;2.20;;;1.33;;
52574;SDS011;38468;48.114;-1.684;2022-08-27T12:04:34;1.47;;;1.37;;
52574;SDS011;38468;48.114;-1.684;2022-08-27T12:06:41;4.50;;;1.25;;
52574;SDS011;38468;48.114;-1.684;2022-08-27T12:08:43;1.63;;;1.08;;
52574;SDS011;38468;48.114;-1.684;2022-08-27T12:13:29;2.90;;;1.02;;
52574;SDS011;38468;48.114;-1.684;2022-08-27T12:18:42;1.67;;;1.20;;
52574;SDS011;38468;48.114;-1.684;2022-08-27T12:25:33;0.90;;;0.90;;
52574;SDS011;38468;48.114;-1.684;2022-08-27T12:27:34;0.73;;;0.73;;
52574;SDS011;38468;48.114;-1.684;2022-08-27T12:29:40;1.13;;;0.77;;
52574;SDS011;38468;48.114;-1.684;2022-08-27T12:31:47;18.27;;;2.08;;
52574;SDS011;38468;48.114;-1.684;2022-08-27T12:33:49;1.88;;;1.13;;
52574;SDS011;38468;48.114;-1.684;2022-08-27T12:35:53;1.58;;;1.48;;
52574;SDS011;38468;48.114;-1.684;2022-08-27T12:38:05;1.10;;;1.00;;
52574;SDS011;38468;48.114;-1.684;2022-08-27T12:40:29;4.10;;;1.00;;
52574;SDS011;38468;48.114;-1.684;2022-08-27T12:42:37;0.65;;;0.65;;
52574;SDS011;38468;48.114;-1.684;2022-08-27T12:44:37;2.80;;;1.17;;
52574;SDS011;38468;48.114;-1.684;2022-08-27T12:46:48;1.50;;;1.13;;
52574;SDS011;38468;48.114;-1.684;2022-08-27T12:48:59;3.78;;;1.55;;
52574;SDS011;38468;48.114;-1.684;2022-08-27T12:51:02;1.60;;;1.42;;
52574;SDS011;38468;48.114;-1.684;2022-08-27T13:04:22;2.80;;;1.27;;
52574;SDS011;38468;48.114;-1.684;2022-08-27T13:06:30;6.40;;;0.90;;
52574;SDS011;38468;48.114;-1.684;2022-08-27T13:08:34;2.80;;;1.45;;
52574;SDS011;38468;48.114;-1.684;2022-08-27T13:10:35;1.25;;;1.15;;
52574;SDS011;38468;48.114;-1.684;2022-08-27T13:12:36;1.90;;;1.33;;
52574;SDS011;38468;48.114;-1.684;2022-08-27T13:14:38;5.78;;;1.02;;
52574;SDS011;38468;48.114;-1.684;2022-08-27T13:16:50;1.83;;;1.65;;
52574;SDS011;38468;48.114;-1.684;2022-08-27T13:18:56;1.02;;;0.95;;
52574;SDS011;38468;48.114;-1.684;2022-08-27T13:21:19;5.43;;;1.30;;
52574;SDS011;38468;48.114;-1.684;2022-08-27T13:23:23;1.95;;;1.30;;
52574;SDS011;38468;48.114;-1.684;2022-08-27T13:25:31;1.50;;;1.25;;
52574;SDS011;38468;48.114;-1.684;2022-08-27T13:27:36;2.92;;;1.35;;
52574;SDS011;38468;48.114;-1.684;2022-08-27T13:29:38;1.00;;;0.90;;
52574;SDS011;38468;48.114;-1.684;2022-08-27T13:31:40;1.13;;;0.80;;
52574;SDS011;38468;48.114;-1.684;2022-08-27T13:33:41;1.20;;;1.10;;
52574;SDS011;38468;48.114;-1.684;2022-08-27T13:35:43;0.88;;;0.88;;
52574;SDS011;38468;48.114;-1.684;2022-08-27T13:37:47;1.40;;;0.82;;
52574;SDS011;38468;48.114;-1.684;2022-08-27T13:39:53;1.00;;;0.95;;
52574;SDS011;38468;48.114;-1.684;2022-08-27T13:41:59;1.45;;;1.00;;